Time;durP1;ratioP1;P1;durP2;ratioP2;P2;SDS_P1;SDS_P2;PMS_P1;PMS_P2;Temp;Humidity;BMP_temperature;BMP_pressure;BME280_temperature;BME280_humidity;BME280_pressure;Samples;Min_cycle;Max_cycle;Signal;HPM_P1;HPM_P2
2022/05/02 00:01:29;;;;;;;7.82;5.97;;;15.50;96.70;;;;;;4929357;29;20051;-87
2022/05/02 00:04:06;;;;;;;7.70;5.78;;;15.50;96.70;;;;;;4931005;29;20055;-86
2022/05/02 00:06:34;;;;;;;7.70;5.68;;;15.50;96.70;;;;;;4922209;29;20051;-87
2022/05/02 00:09:04;;;;;;;6.30;4.78;;;15.50;96.70;;;;;;4930416;29;20091;-88
2022/05/02 00:11:32;;;;;;;5.80;4.38;;;15.40;96.70;;;;;;4937345;28;20070;-86
2022/05/02 00:14:00;;;;;;;7.22;4.63;;;15.30;96.70;;;;;;4929724;29;20098;-86
2022/05/02 00:16:28;;;;;;;6.20;3.97;;;15.40;96.70;;;;;;4940870;29;20126;-86
2022/05/02 00:18:56;;;;;;;4.22;3.80;;;15.30;96.70;;;;;;4932156;28;20143;-86
2022/05/02 00:21:24;;;;;;;5.18;3.83;;;15.30;96.70;;;;;;4920464;29;20069;-85
2022/05/02 00:23:52;;;;;;;5.00;3.38;;;15.20;96.70;;;;;;4933297;29;20047;-86
2022/05/02 00:26:21;;;;;;;5.63;3.70;;;15.20;96.70;;;;;;4923425;29;20255;-86
2022/05/02 00:28:49;;;;;;;6.00;3.72;;;15.10;96.70;;;;;;4934385;29;20035;-85
2022/05/02 00:31:17;;;;;;;4.07;3.30;;;14.90;96.70;;;;;;4914919;28;20056;-84
2022/05/02 00:33:45;;;;;;;3.95;3.55;;;15.00;96.70;;;;;;4949701;28;20508;-86
2022/05/02 00:36:13;;;;;;;4.03;3.42;;;15.00;96.70;;;;;;4920434;29;20054;-86
2022/05/02 00:38:41;;;;;;;4.32;3.25;;;14.90;96.70;;;;;;4900968;29;20060;-86
2022/05/02 00:41:10;;;;;;;4.32;2.83;;;15.00;96.70;;;;;;4900299;29;20051;-86
2022/05/02 00:43:41;;;;;;;4.05;3.10;;;15.10;96.70;;;;;;4903417;29;20104;-86
2022/05/02 00:46:18;;;;;;;4.88;3.20;;;15.10;96.70;;;;;;4909738;29;20481;-86
2022/05/02 00:48:46;;;;;;;4.72;2.85;;;15.20;96.70;;;;;;4914743;29;20043;-86
2022/05/02 00:51:15;;;;;;;4.55;3.17;;;15.10;96.70;;;;;;4908009;29;20052;-86
2022/05/02 00:53:46;;;;;;;3.63;3.03;;;15.00;96.70;;;;;;4914344;29;20087;-86
2022/05/02 00:56:16;;;;;;;3.90;3.15;;;15.00;96.70;;;;;;4915334;29;20632;-86
2022/05/02 00:58:45;;;;;;;4.50;3.00;;;14.80;96.70;;;;;;4909580;29;20082;-86
2022/05/02 01:01:13;;;;;;;4.25;3.63;;;14.70;96.70;;;;;;4918367;29;20060;-86
2022/05/02 01:03:41;;;;;;;4.60;2.97;;;14.60;96.70;;;;;;4911830;29;20055;-86
2022/05/02 01:08:56;;;;;;;6.10;3.47;;;14.50;96.70;;;;;;4922715;29;20139;-86
2022/05/02 01:11:24;;;;;;;4.63;3.72;;;14.50;96.70;;;;;;4897992;29;20067;-86
2022/05/02 01:13:54;;;;;;;5.47;3.65;;;14.50;96.70;;;;;;4905818;29;20107;-86
2022/05/02 01:16:23;;;;;;;5.93;3.75;;;14.50;96.70;;;;;;4899249;29;20139;-86
2022/05/02 01:18:54;;;;;;;5.80;3.72;;;14.50;96.70;;;;;;4909234;29;20070;-86
2022/05/02 01:21:25;;;;;;;5.32;3.53;;;14.60;96.70;;;;;;4905883;29;20593;-86
2022/05/02 01:23:55;;;;;;;5.80;3.97;;;14.40;96.70;;;;;;4910163;29;20048;-87
2022/05/02 01:26:23;;;;;;;5.85;3.67;;;14.40;96.70;;;;;;4923683;28;20043;-86
2022/05/02 01:28:52;;;;;;;6.55;4.15;;;14.50;96.70;;;;;;4921768;29;20274;-86
2022/05/02 01:31:20;;;;;;;6.25;4.05;;;14.50;96.70;;;;;;4901249;29;20063;-85
2022/05/02 01:33:50;;;;;;;5.20;4.18;;;14.50;96.70;;;;;;4897054;29;20048;-86
2022/05/02 01:36:20;;;;;;;7.57;4.30;;;14.40;96.70;;;;;;4919359;29;20113;-86
2022/05/02 01:38:50;;;;;;;5.03;4.15;;;14.40;96.70;;;;;;4918853;29;20068;-86
2022/05/02 01:41:18;;;;;;;5.15;4.65;;;14.40;96.70;;;;;;4930596;28;20370;-86
2022/05/02 01:43:46;;;;;;;8.00;4.82;;;14.50;96.70;;;;;;4922729;29;20047;-86
2022/05/02 01:46:15;;;;;;;6.05;4.53;;;14.40;96.70;;;;;;4938845;29;20043;-86
2022/05/02 01:48:43;;;;;;;5.43;4.30;;;14.40;96.70;;;;;;4915608;29;20048;-86
2022/05/02 01:51:11;;;;;;;5.55;4.32;;;14.30;96.70;;;;;;4917874;29;20095;-86
2022/05/02 01:53:39;;;;;;;4.95;4.32;;;14.30;96.70;;;;;;4920302;29;20051;-87
2022/05/02 01:56:11;;;;;;;8.50;5.10;;;14.40;96.70;;;;;;4930075;28;20133;-86
2022/05/02 01:58:39;;;;;;;8.77;3.92;;;14.30;96.70;;;;;;4924436;29;20047;-86
2022/05/02 02:01:07;;;;;;;4.43;3.83;;;14.30;96.70;;;;;;4928873;28;20054;-86
2022/05/02 02:03:35;;;;;;;6.18;3.50;;;14.40;96.70;;;;;;4916567;29;20058;-86
2022/05/02 02:06:04;;;;;;;4.13;3.60;;;14.30;96.70;;;;;;4928245;29;20040;-87
2022/05/02 02:08:34;;;;;;;5.50;3.28;;;14.40;96.70;;;;;;4923611;28;20078;-87
2022/05/02 02:11:05;;;;;;;3.60;3.10;;;14.30;96.70;;;;;;4915251;29;20047;-86
2022/05/02 02:13:35;;;;;;;5.18;2.88;;;14.30;96.70;;;;;;4927872;29;20079;-87
2022/05/02 02:16:08;;;;;;;5.32;2.85;;;14.30;96.70;;;;;;4923017;29;20067;-87
2022/05/02 02:18:37;;;;;;;4.07;3.42;;;14.30;96.70;;;;;;4929921;29;20141;-86
2022/05/02 02:21:08;;;;;;;3.97;3.00;;;14.30;96.70;;;;;;4946612;29;20389;-86
2022/05/02 02:23:46;;;;;;;4.43;3.65;;;14.20;96.70;;;;;;4923663;29;20051;-86
2022/05/02 02:26:14;;;;;;;5.63;3.70;;;14.20;96.70;;;;;;4921637;29;20320;-86
2022/05/02 02:28:43;;;;;;;3.60;3.30;;;14.20;96.70;;;;;;4920148;29;20051;-86
2022/05/02 02:31:11;;;;;;;4.65;3.40;;;14.20;96.70;;;;;;4912841;29;20138;-86
2022/05/02 02:33:39;;;;;;;3.67;2.90;;;14.20;96.70;;;;;;4932258;29;20050;-86
2022/05/02 02:36:07;;;;;;;4.13;3.47;;;14.20;96.70;;;;;;4937964;29;20046;-86
2022/05/02 02:38:34;;;;;;;3.40;2.97;;;14.20;96.70;;;;;;4929934;29;20058;-86
2022/05/02 02:41:02;;;;;;;5.97;3.10;;;14.20;96.70;;;;;;4936892;28;20074;-86
2022/05/02 02:43:30;;;;;;;3.95;2.83;;;14.20;96.70;;;;;;4911725;29;20123;-86
2022/05/02 02:45:59;;;;;;;3.50;3.00;;;14.20;96.70;;;;;;4932050;29;20842;-86
2022/05/02 02:48:27;;;;;;;4.15;3.08;;;14.20;96.70;;;;;;4919129;29;20139;-86
2022/05/02 02:50:55;;;;;;;3.65;2.85;;;14.10;96.70;;;;;;4921732;29;20082;-87
2022/05/02 02:53:22;;;;;;;4.57;2.90;;;14.00;96.70;;;;;;4917305;29;20047;-86
2022/05/02 02:55:50;;;;;;;3.53;2.90;;;13.90;96.70;;;;;;4922140;29;20591;-86
2022/05/02 02:58:18;;;;;;;4.78;2.88;;;13.90;96.70;;;;;;4915189;29;20059;-87
2022/05/02 03:00:46;;;;;;;4.28;2.85;;;13.90;96.70;;;;;;4935106;29;20066;-86
2022/05/02 03:03:15;;;;;;;3.42;2.92;;;13.80;96.70;;;;;;4916088;29;20059;-86
2022/05/02 03:06:01;;;;;;;3.60;3.00;;;13.80;96.70;;;;;;4913596;29;20078;-87
2022/05/02 03:08:31;;;;;;;3.80;3.40;;;13.70;96.70;;;;;;4920392;29;20107;-86
2022/05/02 03:11:00;;;;;;;5.15;3.45;;;13.50;96.70;;;;;;4932697;29;20058;-86
2022/05/02 03:13:28;;;;;;;5.00;3.65;;;13.60;96.70;;;;;;4925202;29;20066;-86
2022/05/02 03:15:56;;;;;;;3.42;2.75;;;13.50;96.70;;;;;;4921289;29;20587;-86
2022/05/02 03:18:25;;;;;;;5.05;3.30;;;13.60;96.70;;;;;;4927114;29;20137;-86
2022/05/02 03:20:53;;;;;;;4.85;3.30;;;13.70;96.70;;;;;;4913712;29;20052;-86
2022/05/02 03:23:21;;;;;;;4.20;3.80;;;13.60;96.70;;;;;;4911685;29;20036;-86
2022/05/02 03:25:49;;;;;;;5.68;3.33;;;13.50;96.70;;;;;;4924766;29;20535;-86
2022/05/02 03:28:17;;;;;;;4.15;2.92;;;13.60;96.70;;;;;;4931560;29;20048;-86
2022/05/02 03:30:45;;;;;;;4.38;3.63;;;13.50;96.70;;;;;;4931051;29;20071;-86
2022/05/02 03:33:13;;;;;;;3.50;3.20;;;13.50;96.70;;;;;;4917842;29;20043;-86
2022/05/02 03:35:43;;;;;;;4.55;3.30;;;13.60;96.70;;;;;;4917323;28;20081;-86
2022/05/02 03:38:13;;;;;;;4.80;3.20;;;13.60;96.70;;;;;;4914907;29;20141;-86
2022/05/02 03:40:41;;;;;;;5.72;3.42;;;13.60;96.70;;;;;;4931154;29;20055;-86
2022/05/02 03:43:09;;;;;;;4.72;3.30;;;13.60;96.70;;;;;;4913917;28;20095;-86
2022/05/02 03:45:36;;;;;;;3.97;3.10;;;13.60;96.70;;;;;;4924993;29;20700;-86
2022/05/02 03:48:05;;;;;;;3.60;2.83;;;13.60;96.70;;;;;;4924406;29;20099;-87
2022/05/02 03:50:33;;;;;;;4.15;3.38;;;13.30;96.70;;;;;;4910899;29;20044;-86
2022/05/02 03:53:04;;;;;;;3.25;2.92;;;13.30;96.70;;;;;;4933019;29;20047;-86
2022/05/02 03:55:32;;;;;;;3.63;2.97;;;13.20;96.70;;;;;;4934999;29;20044;-86
2022/05/02 03:58:02;;;;;;;3.60;2.88;;;13.30;96.70;;;;;;4920839;29;20450;-87
2022/05/02 04:00:30;;;;;;;4.63;3.10;;;13.30;96.70;;;;;;4915104;29;20059;-86
2022/05/02 04:02:59;;;;;;;4.68;2.92;;;13.40;96.70;;;;;;4924784;29;20099;-87
2022/05/02 04:05:27;;;;;;;5.55;3.90;;;13.50;96.70;;;;;;4925889;29;20494;-86
2022/05/02 04:07:55;;;;;;;3.85;3.17;;;13.50;96.70;;;;;;4913480;29;20040;-87
2022/05/02 04:10:25;;;;;;;4.03;3.10;;;13.30;96.70;;;;;;4935068;29;20580;-87
2022/05/02 04:12:53;;;;;;;4.25;3.38;;;13.30;96.70;;;;;;4922511;29;20061;-86
2022/05/02 04:15:43;;;;;;;5.47;3.90;;;13.30;96.70;;;;;;4941228;28;20048;-87
2022/05/02 04:18:11;;;;;;;3.90;2.90;;;13.30;96.70;;;;;;4940204;29;20060;-87
2022/05/02 04:20:38;;;;;;;3.78;3.35;;;13.30;96.70;;;;;;4919621;29;20079;-87
2022/05/02 04:23:06;;;;;;;4.03;3.03;;;13.30;96.70;;;;;;4935179;29;20043;-87
2022/05/02 04:25:36;;;;;;;4.93;3.90;;;13.20;96.70;;;;;;4918748;29;20128;-86
2022/05/02 04:28:04;;;;;;;5.38;3.90;;;13.20;96.70;;;;;;4935763;29;20138;-87
2022/05/02 04:30:32;;;;;;;5.38;3.85;;;13.20;96.70;;;;;;4919061;29;20587;-87
2022/05/02 04:33:01;;;;;;;4.80;3.65;;;13.30;96.70;;;;;;4944164;28;20043;-87
2022/05/02 04:35:29;;;;;;;5.13;3.47;;;13.30;96.70;;;;;;4916864;29;20044;-87
2022/05/02 04:37:58;;;;;;;4.13;3.60;;;13.30;96.70;;;;;;4926735;29;20052;-86
2022/05/02 04:40:26;;;;;;;5.45;3.33;;;13.40;96.70;;;;;;4908553;29;20133;-87
2022/05/02 04:42:56;;;;;;;3.83;3.00;;;13.40;96.70;;;;;;4904524;29;20052;-87
2022/05/02 04:45:24;;;;;;;3.50;2.80;;;13.40;96.70;;;;;;4902011;29;20503;-87
2022/05/02 04:47:52;;;;;;;6.70;3.20;;;13.30;96.70;;;;;;4922449;29;20067;-86
2022/05/02 04:50:20;;;;;;;3.63;3.10;;;13.30;96.70;;;;;;4911577;29;20044;-86
2022/05/02 04:52:48;;;;;;;4.63;3.45;;;13.30;96.70;;;;;;4921769;29;20052;-86
2022/05/02 04:55:16;;;;;;;5.05;3.55;;;13.20;96.70;;;;;;4921197;29;20079;-87
2022/05/02 04:57:44;;;;;;;6.20;3.63;;;13.20;96.70;;;;;;4912881;29;20232;-86
2022/05/02 05:00:22;;;;;;;5.03;3.58;;;13.30;96.70;;;;;;4900140;29;20072;-86
2022/05/02 05:02:50;;;;;;;9.02;3.22;;;13.30;96.70;;;;;;4918071;29;20075;-86
2022/05/02 05:05:18;;;;;;;4.63;3.28;;;13.30;96.70;;;;;;4927963;29;20505;-86
2022/05/02 05:07:46;;;;;;;4.88;2.90;;;13.20;96.70;;;;;;4923948;29;20048;-85
2022/05/02 05:10:14;;;;;;;3.30;3.00;;;13.20;96.70;;;;;;4926484;29;20455;-84
2022/05/02 05:12:55;;;;;;;5.10;2.92;;;13.30;96.70;;;;;;4913478;29;20076;-82
2022/05/02 05:19:02;;;;;;;4.85;3.70;;;13.40;96.70;;;;;;4895021;29;20138;-81
2022/05/02 05:21:40;;;;;;;5.75;4.60;;;13.40;96.70;;;;;;4891518;29;20052;-82
2022/05/02 05:24:42;;;;;;;7.10;5.88;;;13.40;96.70;;;;;;4897705;29;20052;-82
2022/05/02 05:27:26;;;;;;;7.10;5.82;;;13.50;96.70;;;;;;4861254;29;20536;-82
2022/05/02 05:30:02;;;;;;;6.88;5.38;;;13.50;96.70;;;;;;4895323;29;20056;-82
2022/05/02 05:32:43;;;;;;;11.00;5.25;;;13.50;96.70;;;;;;4902606;29;20048;-82
2022/05/02 05:35:14;;;;;;;7.63;4.82;;;13.50;96.70;;;;;;4892178;29;20140;-81
2022/05/02 05:38:00;;;;;;;6.82;5.35;;;13.50;96.70;;;;;;4891125;29;20060;-81
2022/05/02 05:40:34;;;;;;;6.15;4.90;;;13.50;96.70;;;;;;4898642;29;20052;-81
2022/05/02 05:43:30;;;;;;;6.38;4.60;;;13.60;96.70;;;;;;4890717;29;20100;-82
2022/05/02 05:46:30;;;;;;;9.70;5.57;;;13.60;96.70;;;;;;4875769;29;20064;-81
2022/05/02 05:49:08;;;;;;;8.95;5.03;;;13.60;96.70;;;;;;4889577;29;20056;-80
2022/05/02 05:51:50;;;;;;;11.90;5.68;;;13.70;96.70;;;;;;4902957;29;20171;-82
2022/05/02 05:54:41;;;;;;;7.20;4.60;;;13.70;96.70;;;;;;4913550;29;20063;-82
2022/05/02 05:57:19;;;;;;;5.40;4.07;;;13.80;96.70;;;;;;4923482;29;20044;-82
2022/05/02 06:00:01;;;;;;;6.00;4.22;;;13.80;96.70;;;;;;4897393;29;20059;-82
2022/05/02 06:02:39;;;;;;;6.22;4.00;;;13.80;96.70;;;;;;4921088;29;20450;-81
2022/05/02 06:05:09;;;;;;;9.20;4.13;;;13.90;96.70;;;;;;4927179;29;20525;-81
2022/05/02 06:07:38;;;;;;;6.80;4.20;;;14.00;96.70;;;;;;4909658;29;20052;-80
2022/05/02 06:10:09;;;;;;;4.30;3.83;;;14.00;96.70;;;;;;4914739;29;20147;-81
2022/05/02 06:12:38;;;;;;;6.03;3.78;;;14.10;96.70;;;;;;4898256;29;20071;-81
2022/05/02 06:20:47;;;;;;;6.30;4.63;;;14.30;96.70;;;;;;4909184;29;20586;-81
2022/05/02 06:23:15;;;;;;;5.30;4.40;;;14.30;96.70;;;;;;4902691;29;20040;-81
2022/05/02 06:25:48;;;;;;;5.72;4.35;;;14.30;96.70;;;;;;4912241;29;20095;-82
2022/05/02 06:28:18;;;;;;;6.47;5.13;;;14.40;96.70;;;;;;4902299;29;20568;-82
2022/05/02 06:30:51;;;;;;;5.75;4.97;;;14.40;96.70;;;;;;4923270;29;20039;-81
2022/05/02 06:33:21;;;;;;;5.75;4.40;;;14.40;96.70;;;;;;4912770;29;20054;-80
2022/05/02 06:36:01;;;;;;;6.03;4.90;;;14.40;96.70;;;;;;4894067;29;20052;-77
2022/05/02 06:38:43;;;;;;;8.45;4.90;;;14.50;96.70;;;;;;4914240;29;20062;-79
2022/05/02 06:41:23;;;;;;;4.95;4.28;;;14.60;96.70;;;;;;4911046;29;20051;-83
2022/05/02 06:44:01;;;;;;;8.65;5.35;;;14.70;96.70;;;;;;4903019;29;20044;-82
2022/05/02 06:46:37;;;;;;;6.28;4.95;;;14.80;96.70;;;;;;4911518;29;20055;-83
2022/05/02 06:49:11;;;;;;;5.75;4.60;;;14.90;96.70;;;;;;4920521;29;20095;-84
2022/05/02 06:51:44;;;;;;;5.45;4.82;;;15.00;96.70;;;;;;4902161;29;20493;-86
2022/05/02 06:54:33;;;;;;;6.72;4.93;;;15.10;96.70;;;;;;4906582;29;20581;-86
2022/05/02 06:57:10;;;;;;;5.32;4.82;;;15.10;96.70;;;;;;4909490;29;20088;-82
2022/05/02 06:59:45;;;;;;;6.28;5.20;;;15.10;96.70;;;;;;4889421;29;20071;-81
2022/05/02 07:02:52;;;;;;;7.18;5.10;;;15.20;96.70;;;;;;4895747;29;20084;-81
2022/05/02 07:05:26;;;;;;;6.90;5.03;;;15.20;96.70;;;;;;4889430;29;20074;-81
2022/05/02 07:08:01;;;;;;;7.20;5.15;;;15.20;96.70;;;;;;4916535;29;20044;-80
2022/05/02 07:10:33;;;;;;;8.20;6.03;;;15.20;96.70;;;;;;4901198;29;20111;-80
2022/05/02 07:13:17;;;;;;;5.95;5.10;;;15.30;96.70;;;;;;4897778;29;20088;-80
2022/05/02 07:15:48;;;;;;;9.25;5.70;;;15.50;96.70;;;;;;4907856;29;20424;-80
2022/05/02 07:18:30;;;;;;;5.53;4.57;;;15.50;96.70;;;;;;4892749;29;20052;-79
2022/05/02 07:21:15;;;;;;;7.68;5.55;;;15.50;96.70;;;;;;4895707;29;20058;-80
2022/05/02 07:24:09;;;;;;;6.38;5.03;;;15.70;96.70;;;;;;4909022;29;20100;-79
2022/05/02 07:26:38;;;;;;;7.88;4.70;;;15.80;96.70;;;;;;4890168;29;20055;-79
2022/05/02 07:29:08;;;;;;;6.45;5.30;;;15.90;96.70;;;;;;4900549;29;20050;-80
2022/05/02 07:31:38;;;;;;;6.28;4.15;;;16.00;96.70;;;;;;4914545;29;20111;-80
2022/05/02 07:34:07;;;;;;;5.50;4.75;;;16.10;96.70;;;;;;4910297;29;20173;-80
2022/05/02 07:36:37;;;;;;;5.68;5.10;;;16.10;96.70;;;;;;4897242;29;20136;-80
2022/05/02 07:39:10;;;;;;;9.43;5.07;;;16.20;96.70;;;;;;4904413;29;20120;-80
2022/05/02 07:41:39;;;;;;;7.30;5.07;;;16.30;96.70;;;;;;4908314;29;20070;-81
2022/05/02 07:44:08;;;;;;;10.88;6.22;;;16.30;96.70;;;;;;4915502;29;20147;-80
2022/05/02 07:46:38;;;;;;;7.38;5.35;;;16.40;96.70;;;;;;4912441;29;20055;-80
2022/05/02 07:49:08;;;;;;;8.52;5.05;;;16.50;96.70;;;;;;4913259;29;20538;-79
2022/05/02 07:51:40;;;;;;;8.48;5.07;;;16.60;96.70;;;;;;4905479;29;20099;-82
2022/05/02 07:54:15;;;;;;;8.73;5.35;;;16.70;96.70;;;;;;4904415;29;20044;-80
2022/05/02 07:56:46;;;;;;;7.13;5.40;;;16.70;96.70;;;;;;4912127;29;20059;-78
2022/05/02 07:59:16;;;;;;;8.38;6.05;;;16.70;96.70;;;;;;4894981;29;20044;-79
2022/05/02 08:01:44;;;;;;;9.43;5.40;;;16.80;96.70;;;;;;4911979;29;20398;-80
2022/05/02 08:04:14;;;;;;;6.47;5.38;;;16.90;96.70;;;;;;4892197;29;20056;-80
2022/05/02 08:06:55;;;;;;;6.38;4.80;;;17.00;96.70;;;;;;4896553;29;20119;-79
2022/05/02 08:10:02;;;;;;;5.70;5.20;;;17.10;96.70;;;;;;4912597;29;20059;-80
2022/05/02 08:12:37;;;;;;;6.70;4.72;;;17.10;96.70;;;;;;4914545;29;20052;-81
2022/05/02 08:15:11;;;;;;;7.57;4.80;;;17.10;96.70;;;;;;4915171;29;20055;-80
2022/05/02 08:18:15;;;;;;;5.22;4.60;;;17.10;96.70;;;;;;4917332;29;20655;-77
2022/05/02 08:20:47;;;;;;;6.55;5.15;;;17.20;96.70;;;;;;4872047;29;20059;-78
2022/05/02 08:29:28;;;;;;;7.30;5.03;;;17.50;96.70;;;;;;4914904;29;20486;-77
2022/05/02 08:32:07;;;;;;;7.43;4.32;;;17.60;96.70;;;;;;4895105;29;20052;-78
2022/05/02 08:34:43;;;;;;;5.20;4.70;;;17.80;96.70;;;;;;4896964;29;20055;-78
2022/05/02 08:37:27;;;;;;;4.60;4.20;;;17.90;96.70;;;;;;4895175;29;20104;-78
2022/05/02 08:40:07;;;;;;;5.53;4.50;;;18.00;96.70;;;;;;4897163;29;20044;-77
2022/05/02 08:43:22;;;;;;;5.20;4.68;;;18.10;96.70;;;;;;4908590;29;20048;-77
2022/05/02 08:46:26;;;;;;;4.18;3.63;;;18.20;96.70;;;;;;4912022;29;20048;-75
2022/05/02 08:49:36;;;;;;;5.43;4.07;;;18.30;96.70;;;;;;4916466;29;20074;-76
2022/05/02 08:52:35;;;;;;;6.03;3.60;;;18.30;96.70;;;;;;4908177;29;20076;-77
2022/05/02 08:55:16;;;;;;;3.97;3.67;;;18.40;96.70;;;;;;4912030;29;20044;-77
2022/05/02 08:58:24;;;;;;;4.55;3.70;;;18.50;96.70;;;;;;4893837;29;20052;-77
2022/05/02 09:01:10;;;;;;;5.68;3.47;;;18.60;96.70;;;;;;4890678;29;20083;-77
2022/05/02 09:04:21;;;;;;;3.38;3.08;;;18.70;96.70;;;;;;4915744;29;20048;-77
2022/05/02 09:07:29;;;;;;;3.88;3.03;;;18.90;96.70;;;;;;4913306;29;20046;-78
2022/05/02 09:10:06;;;;;;;4.28;3.08;;;18.90;96.70;;;;;;4890803;29;20781;-77
2022/05/02 09:13:03;;;;;;;5.80;3.30;;;19.10;96.70;;;;;;4912468;29;20048;-76
2022/05/02 09:16:16;;;;;;;3.80;3.10;;;19.10;96.70;;;;;;4897770;29;20054;-76
2022/05/02 09:19:32;;;;;;;3.20;2.90;;;18.90;96.70;;;;;;4897128;29;20060;-77
2022/05/02 09:22:34;;;;;;;7.20;3.00;;;18.90;96.70;;;;;;4911016;29;20051;-76
2022/05/02 09:25:04;;;;;;;3.35;3.03;;;19.00;96.70;;;;;;4887399;29;20541;-76
2022/05/02 09:27:42;;;;;;;8.13;3.25;;;19.00;96.70;;;;;;4895037;29;20048;-76
2022/05/02 09:30:25;;;;;;;4.40;2.65;;;19.00;96.70;;;;;;4897558;29;20140;-79
2022/05/02 09:33:05;;;;;;;3.08;2.58;;;19.10;96.70;;;;;;4899269;29;20131;-78
2022/05/02 09:35:34;;;;;;;2.70;2.50;;;19.30;96.70;;;;;;4909779;29;20067;-77
2022/05/02 09:38:20;;;;;;;4.32;2.83;;;19.40;96.70;;;;;;4847269;29;1479249;-79
2022/05/02 09:40:53;;;;;;;7.45;2.97;;;19.50;96.70;;;;;;4897823;29;20348;-76
2022/05/02 09:49:33;;;;;;;4.05;2.78;;;19.50;96.70;;;;;;4891946;29;20134;-77
2022/05/02 09:49:53;;;;;;;4.38;2.33;;;19.70;96.70;;;;;;4888940;29;20060;-79
2022/05/02 09:52:28;;;;;;;4.82;2.30;;;20.10;96.70;;;;;;4896653;29;20508;-77
2022/05/02 09:58:41;;;;;;;2.65;2.22;;;20.40;96.70;;;;;;4912845;29;20447;-77
2022/05/02 10:01:18;;;;;;;5.82;2.40;;;21.00;96.70;;;;;;4908570;29;20051;-78
2022/05/02 10:04:14;;;;;;;6.40;2.63;;;21.00;96.70;;;;;;4899904;29;20050;-78
2022/05/02 10:06:48;;;;;;;5.28;2.28;;;20.90;96.70;;;;;;4899523;29;20079;-78
2022/05/02 10:09:31;;;;;;;3.22;2.35;;;20.90;96.70;;;;;;4897207;29;20063;-77
2022/05/02 10:12:07;;;;;;;3.67;2.33;;;20.90;96.70;;;;;;4896130;29;20098;-79
2022/05/02 10:14:53;;;;;;;3.25;2.40;;;21.10;96.70;;;;;;4889856;29;20519;-78
2022/05/02 10:17:53;;;;;;;4.68;2.50;;;21.00;96.70;;;;;;4900817;29;20378;-79
2022/05/02 10:20:22;;;;;;;3.00;2.17;;;20.80;96.70;;;;;;4911011;29;20163;-78
2022/05/02 10:23:09;;;;;;;5.45;2.00;;;20.80;96.70;;;;;;4911426;29;20516;-78
2022/05/02 10:25:41;;;;;;;3.70;2.55;;;20.70;96.70;;;;;;4901612;29;20048;-75
2022/05/02 10:28:35;;;;;;;2.70;2.47;;;20.70;96.70;;;;;;4914109;29;20513;-80
2022/05/02 10:31:05;;;;;;;3.20;2.35;;;20.70;96.70;;;;;;4895048;29;20048;-77
2022/05/02 10:33:36;;;;;;;3.53;2.08;;;20.70;96.70;;;;;;4909190;29;20513;-77
2022/05/02 10:36:05;;;;;;;6.07;2.50;;;20.80;96.70;;;;;;4890818;29;20058;-78
2022/05/02 10:38:51;;;;;;;3.22;2.10;;;20.80;96.70;;;;;;4906516;29;20060;-78
2022/05/02 10:41:37;;;;;;;4.68;2.15;;;20.80;96.70;;;;;;4911318;29;20058;-78
2022/05/02 10:44:06;;;;;;;3.00;2.13;;;20.70;96.70;;;;;;4893678;29;20052;-77
2022/05/02 10:46:34;;;;;;;3.45;2.17;;;20.80;96.70;;;;;;4903868;29;20529;-78
2022/05/02 10:49:03;;;;;;;2.67;2.20;;;20.70;96.70;;;;;;4896762;29;20147;-79
2022/05/02 10:51:46;;;;;;;3.97;2.50;;;20.60;96.70;;;;;;4908916;29;20398;-79
2022/05/02 10:54:32;;;;;;;2.97;1.85;;;20.70;96.70;;;;;;4914736;29;20119;-78
2022/05/02 10:57:04;;;;;;;2.35;1.65;;;20.90;96.70;;;;;;4891078;29;20585;-78
2022/05/02 10:59:40;;;;;;;2.60;1.90;;;21.30;96.70;;;;;;4916021;29;20050;-78
2022/05/02 11:02:41;;;;;;;2.53;2.00;;;21.20;96.50;;;;;;4914648;29;20644;-78
2022/05/02 11:05:10;;;;;;;3.58;1.80;;;21.40;96.10;;;;;;4905805;29;20127;-78
2022/05/02 11:07:54;;;;;;;3.70;1.92;;;21.50;95.50;;;;;;4910494;29;20040;-77
2022/05/02 11:10:28;;;;;;;3.40;2.20;;;21.30;95.10;;;;;;4896748;29;20048;-78
2022/05/02 11:13:11;;;;;;;2.17;1.67;;;21.30;95.40;;;;;;4910139;29;20138;-77
2022/05/02 11:15:58;;;;;;;2.05;1.85;;;21.30;96.10;;;;;;4893441;29;20048;-78
2022/05/02 11:21:31;;;;;;;3.22;1.63;;;21.40;96.30;;;;;;4889866;29;20055;-78
2022/05/02 11:24:25;;;;;;;2.42;1.85;;;21.40;96.20;;;;;;4892153;29;20063;-79
2022/05/02 11:27:05;;;;;;;2.80;2.17;;;21.40;96.70;;;;;;4909138;29;20056;-77
2022/05/02 11:29:46;;;;;;;2.45;1.70;;;21.20;96.00;;;;;;4897668;29;20050;-77
2022/05/02 11:32:26;;;;;;;4.90;2.17;;;21.10;96.70;;;;;;4888844;29;20052;-77
2022/05/02 11:35:08;;;;;;;3.47;1.98;;;21.00;96.70;;;;;;4892397;29;20064;-78
2022/05/02 11:37:42;;;;;;;3.40;2.05;;;20.90;96.70;;;;;;4917076;29;20056;-78
2022/05/02 11:40:11;;;;;;;4.55;2.25;;;21.00;96.70;;;;;;4892964;29;20423;-78
2022/05/02 11:42:43;;;;;;;3.08;2.17;;;21.10;96.70;;;;;;4913290;29;20916;-78
2022/05/02 11:45:12;;;;;;;3.90;2.42;;;21.20;96.70;;;;;;4892921;29;20615;-79
2022/05/02 11:48:06;;;;;;;4.05;2.30;;;21.20;96.70;;;;;;4899338;29;20051;-77
2022/05/02 11:50:43;;;;;;;3.40;2.03;;;21.00;96.70;;;;;;4907815;29;20080;-78
2022/05/02 11:53:14;;;;;;;3.72;2.00;;;21.00;96.70;;;;;;4911895;29;20130;-79
2022/05/02 11:55:43;;;;;;;2.65;1.98;;;21.00;96.70;;;;;;4888370;29;20053;-78
2022/05/02 11:58:26;;;;;;;5.10;2.00;;;21.00;96.70;;;;;;4908911;29;20131;-77
2022/05/02 12:01:02;;;;;;;3.10;2.25;;;20.90;96.70;;;;;;4889573;29;20056;-77
2022/05/02 12:03:51;;;;;;;3.33;2.05;;;20.70;96.70;;;;;;4908314;29;20055;-77
2022/05/02 12:06:31;;;;;;;2.40;1.55;;;20.50;96.70;;;;;;4890243;29;20067;-78
2022/05/02 12:09:03;;;;;;;2.88;2.13;;;20.40;96.70;;;;;;4892663;29;20052;-78
2022/05/02 12:11:32;;;;;;;4.32;1.70;;;20.30;96.70;;;;;;4908295;29;20076;-78
2022/05/02 12:14:03;;;;;;;2.20;2.00;;;20.30;96.70;;;;;;4892490;29;20579;-78
2022/05/02 12:16:33;;;;;;;3.65;2.30;;;20.40;96.70;;;;;;4878245;29;20127;-78
2022/05/02 12:19:08;;;;;;;1.95;1.70;;;20.40;96.70;;;;;;4912529;29;20048;-79
2022/05/02 12:21:40;;;;;;;4.22;2.22;;;20.60;96.70;;;;;;4915200;29;20079;-78
2022/05/02 12:24:09;;;;;;;2.85;1.92;;;20.60;96.70;;;;;;4890794;29;20087;-78
2022/05/02 12:26:44;;;;;;;2.65;2.10;;;20.60;96.70;;;;;;4891986;29;20508;-78
2022/05/02 12:29:17;;;;;;;3.05;2.08;;;20.60;96.70;;;;;;4901568;29;20710;-77
2022/05/02 12:31:54;;;;;;;2.42;1.95;;;20.70;96.70;;;;;;4894450;29;20131;-78
2022/05/02 12:34:33;;;;;;;3.00;2.17;;;20.80;96.70;;;;;;4890658;29;20063;-80
2022/05/02 12:37:07;;;;;;;3.40;1.88;;;21.00;96.70;;;;;;4909062;29;20051;-77
2022/05/02 12:39:45;;;;;;;4.20;2.30;;;21.40;96.70;;;;;;4910192;29;20054;-77
2022/05/02 12:42:17;;;;;;;3.03;2.30;;;21.50;96.70;;;;;;4897021;29;20052;-77
2022/05/02 12:44:57;;;;;;;3.03;2.08;;;21.60;96.70;;;;;;4893641;29;20111;-77
2022/05/02 12:47:27;;;;;;;3.10;2.25;;;21.90;96.00;;;;;;4915446;29;20048;-77
2022/05/02 12:50:06;;;;;;;2.78;2.05;;;22.40;95.90;;;;;;4913675;29;20071;-77
2022/05/02 12:52:42;;;;;;;3.72;2.25;;;22.60;94.10;;;;;;4913220;29;20047;-78
2022/05/02 12:55:11;;;;;;;3.67;2.25;;;22.60;93.10;;;;;;4892062;29;20048;-78
2022/05/02 13:00:32;;;;;;;6.32;2.38;;;22.50;93.90;;;;;;4893102;29;20593;-77
2022/05/02 13:03:17;;;;;;;9.35;3.17;;;22.40;93.90;;;;;;4896314;29;20056;-77
2022/05/02 13:05:54;;;;;;;5.28;3.00;;;22.40;93.50;;;;;;4906832;29;20043;-77
2022/05/02 13:08:31;;;;;;;;;;;22.40;94.50;;;;;;4896250;29;20051;-77
2022/05/02 13:11:05;;;;;;;4.13;2.00;;;22.70;94.40;;;;;;4895850;29;20413;-78
2022/05/02 13:13:39;;;;;;;2.38;1.95;;;23.00;93.60;;;;;;4897900;29;20048;-78
2022/05/02 13:16:25;;;;;;;2.85;2.05;;;23.20;91.70;;;;;;4896789;29;20565;-78
2022/05/02 13:18:55;;;;;;;2.30;2.10;;;23.50;91.90;;;;;;4914314;29;20054;-77
2022/05/02 13:21:23;;;;;;;2.65;2.20;;;23.70;90.60;;;;;;4909636;29;20142;-78
2022/05/02 13:23:55;;;;;;;3.00;2.10;;;24.00;88.50;;;;;;4895086;29;20051;-78
2022/05/02 13:26:51;;;;;;;2.25;1.88;;;24.20;88.50;;;;;;4894610;29;20048;-77
2022/05/02 13:29:28;;;;;;;3.47;1.90;;;24.60;88.50;;;;;;4917078;29;20092;-78
2022/05/02 13:32:04;;;;;;;2.92;2.13;;;24.90;87.00;;;;;;4910967;29;20253;-77
2022/05/02 13:34:54;;;;;;;4.20;2.13;;;25.10;87.20;;;;;;4904320;29;20255;-77
2022/05/02 13:37:31;;;;;;;3.78;2.15;;;25.20;90.20;;;;;;4910013;29;20071;-77
2022/05/02 13:40:08;;;;;;;3.35;2.30;;;24.70;89.50;;;;;;4894088;29;20059;-79
2022/05/02 13:42:50;;;;;;;2.75;2.20;;;24.80;91.00;;;;;;4911046;29;20059;-77
2022/05/02 13:45:29;;;;;;;3.70;2.33;;;24.70;90.90;;;;;;4892014;29;20087;-78
2022/05/02 13:48:11;;;;;;;2.40;1.85;;;24.30;91.80;;;;;;4915878;29;20040;-77
2022/05/02 13:50:44;;;;;;;2.70;1.80;;;23.90;90.90;;;;;;4914457;29;24675;-78
2022/05/02 13:53:34;;;;;;;2.90;1.85;;;23.50;92.10;;;;;;4896385;29;20103;-78
2022/05/02 13:56:18;;;;;;;3.53;1.80;;;23.10;93.90;;;;;;4894397;29;20119;-77
2022/05/02 13:59:17;;;;;;;3.60;1.92;;;22.80;95.90;;;;;;4900841;29;20052;-78
2022/05/02 14:01:58;;;;;;;2.15;1.70;;;22.80;96.70;;;;;;4882882;29;20777;-79